createdAt,value
2022-10-31T00:08:26.743Z,98927.59
2022-10-31T00:18:30.801Z,98931.74
2022-10-31T00:28:34.932Z,98934.29
2022-10-31T00:38:38.090Z,98943.13
2022-10-31T00:48:41.899Z,98947.67
2022-10-31T00:58:45.503Z,98943.38
2022-10-31T01:08:48.535Z,98946.75
2022-10-31T01:18:53.071Z,98945.73
2022-10-31T01:28:58.594Z,98952.80
2022-10-31T01:39:05.539Z,98952.08
2022-10-31T01:49:12.808Z,98952.25
2022-10-31T01:59:20.118Z,98950.62
2022-10-31T02:09:25.927Z,98950.20
2022-10-31T02:19:33.150Z,98956.12
2022-10-31T02:30:10.770Z,98948.86
2022-10-31T02:40:13.951Z,98954.48
2022-10-31T02:50:23.080Z,98953.73
2022-10-31T03:00:27.926Z,98957.63
2022-10-31T03:10:32.600Z,98965.16
2022-10-31T03:20:41.136Z,98967.26
2022-10-31T03:30:46.693Z,98969.69
2022-10-31T03:40:54.764Z,98978.64
2022-10-31T03:50:59.001Z,98985.17
2022-10-31T04:01:06.675Z,98989.52
2022-10-31T04:11:12.037Z,98993.55
2022-10-31T04:21:15.517Z,98995.68
2022-10-31T04:31:19.100Z,98993.73
2022-10-31T04:41:22.615Z,98989.52
2022-10-31T04:51:26.474Z,98995.75
2022-10-31T05:01:29.741Z,98996.88
2022-10-31T05:11:33.584Z,99000.98
2022-10-31T05:21:43.216Z,99000.65
2022-10-31T05:31:46.789Z,99006.20
2022-10-31T05:41:50.255Z,99013.80
2022-10-31T05:51:54.110Z,99020.56
2022-10-31T06:01:57.713Z,99018.41
2022-10-31T06:12:01.265Z,99021.20
2022-10-31T06:22:04.847Z,99027.57
2022-10-31T06:32:12.096Z,99026.61
2022-10-31T06:42:16.220Z,99036.25
2022-10-31T06:52:19.746Z,99038.23
2022-10-31T07:02:23.864Z,99039.25
2022-10-31T07:12:27.144Z,99047.34
2022-10-31T07:22:33.720Z,99051.39
2022-10-31T07:32:39.760Z,99059.19
2022-10-31T07:42:46.878Z,99058.34
2022-10-31T07:52:59.113Z,99058.04
2022-10-31T08:03:04.825Z,99060.74
2022-10-31T08:13:10.783Z,99064.01
2022-10-31T08:23:14.537Z,99069.74
2022-10-31T08:33:19.497Z,99082.25
2022-10-31T08:43:22.980Z,99081.60
2022-10-31T08:53:27.147Z,99082.34
2022-10-31T09:03:32.636Z,99085.11
2022-10-31T09:13:40.980Z,99086.16
2022-10-31T09:23:45.097Z,99088.97
2022-10-31T09:33:48.590Z,99093.95
2022-10-31T09:44:08.353Z,99099.91
2022-10-31T09:54:16.992Z,99100.61
2022-10-31T10:04:31.105Z,99102.33
2022-10-31T10:14:43.362Z,99104.13
2022-10-31T10:25:08.638Z,99099.29
2022-10-31T10:35:18.322Z,99090.77
2022-10-31T10:45:39.783Z,99088.16
2022-10-31T10:55:49.712Z,99082.46
2022-10-31T11:05:55.126Z,99074.10
2022-10-31T11:15:58.210Z,99078.41
2022-10-31T11:26:04.500Z,99073.61
2022-10-31T11:36:16.968Z,99070.89
2022-10-31T11:46:21.084Z,99074.69
2022-10-31T11:56:25.820Z,99073.80
2022-10-31T12:06:28.943Z,99064.79
2022-10-31T12:16:32.179Z,99067.02
2022-10-31T12:26:38.078Z,99061.41
2022-10-31T12:36:44.708Z,99049.63
2022-10-31T12:46:53.363Z,99040.19
2022-10-31T12:56:55.974Z,99036.15
2022-10-31T13:07:03.138Z,99035.73
2022-10-31T13:17:07.951Z,99041.45
2022-10-31T13:27:12.574Z,99044.18
2022-10-31T13:37:16.709Z,99042.24
2022-10-31T13:47:21.752Z,99043.64
2022-10-31T13:57:33.097Z,99044.84
2022-10-31T14:07:43.892Z,99048.09
2022-10-31T14:17:51.209Z,99045.70
2022-10-31T14:27:55.715Z,99038.96
2022-10-31T14:38:06.173Z,99030.67
2022-10-31T14:48:12.733Z,99024.18
2022-10-31T14:58:18.928Z,99020.46
2022-10-31T15:08:44.505Z,99017.63
2022-10-31T15:18:51.443Z,99013.23
2022-10-31T15:29:03.109Z,99016.32
2022-10-31T15:39:10.711Z,99012.64
2022-10-31T15:49:16.706Z,99019.95
2022-10-31T15:59:22.991Z,99027.83
2022-10-31T16:09:27.098Z,99028.19
2022-10-31T16:19:33.423Z,99027.89
2022-10-31T16:29:42.936Z,99027.59
2022-10-31T16:39:47.175Z,99034.15
2022-10-31T16:49:51.052Z,99035.50
2022-10-31T16:59:54.962Z,99041.56
2022-10-31T17:09:58.542Z,99050.16
2022-10-31T17:20:02.903Z,99052.42
2022-10-31T17:30:08.455Z,99062.03
2022-10-31T17:40:14.632Z,99062.16
2022-10-31T17:50:19.208Z,99059.20
2022-10-31T18:00:23.902Z,99058.00
2022-10-31T18:10:27.642Z,99056.48
2022-10-31T18:20:31.268Z,99054.75
2022-10-31T18:30:38.666Z,99055.20
2022-10-31T18:40:42.229Z,99051.23
2022-10-31T18:50:47.180Z,99040.90
2022-10-31T19:00:51.145Z,99041.86
2022-10-31T19:10:54.799Z,99027.45
2022-10-31T19:20:58.498Z,99024.97
2022-10-31T19:31:02.731Z,99025.03
2022-10-31T19:41:08.387Z,99020.10
2022-10-31T19:51:13.820Z,99021.27
2022-10-31T20:01:19.236Z,99018.48
2022-10-31T20:11:24.493Z,99017.84
2022-10-31T20:21:29.768Z,99013.56
2022-10-31T20:31:36.033Z,99006.17
2022-10-31T20:41:39.833Z,98999.66
2022-10-31T20:51:43.364Z,98994.13
2022-10-31T21:01:46.956Z,98983.42
2022-10-31T21:11:50.634Z,98982.36
2022-10-31T21:21:53.432Z,98972.54
2022-10-31T21:31:57.184Z,98962.08
2022-10-31T21:42:00.805Z,98946.55
2022-10-31T21:52:04.568Z,98943.30
2022-10-31T22:12:15.636Z,98923.04
2022-10-31T22:22:19.329Z,98917.83
2022-10-31T22:32:23.246Z,98913.41
2022-10-31T22:42:27.183Z,98907.80
2022-10-31T22:52:30.639Z,98898.41
2022-10-31T23:02:34.241Z,98897.91
2022-10-31T23:12:55.418Z,98898.64
2022-10-31T23:22:59.215Z,98892.73
2022-10-31T23:43:06.101Z,98875.66
2022-10-31T23:53:09.631Z,98872.41
